Time;durP1;ratioP1;P1;durP2;ratioP2;P2;SDS_P1;SDS_P2;PMS_P1;PMS_P2;Temp;Humidity;BMP_temperature;BMP_pressure;BME280_temperature;BME280_humidity;BME280_pressure;Samples;Min_cycle;Max_cycle;Signal;HPM_P1;HPM_P2
2022/01/13 00:00:45;;;;;;;17.02;11.15;;;;;;;0.33;100.00;100524.22;10366415;28;20561;-66
2022/01/13 00:05:48;;;;;;;17.08;11.15;;;;;;;0.33;100.00;100519.81;10358938;28;20069;-67
2022/01/13 00:10:53;;;;;;;15.15;10.70;;;;;;;0.30;100.00;100528.69;10371237;28;20425;-69
2022/01/13 00:16:23;;;;;;;16.55;11.30;;;;;;;0.27;100.00;100520.84;10364954;28;20129;-67
2022/01/13 00:21:34;;;;;;;18.45;12.15;;;;;;;0.23;100.00;100516.53;10368224;28;20124;-67
2022/01/13 00:26:39;;;;;;;21.65;12.30;;;;;;;0.19;100.00;100522.81;10357590;28;20056;-68
2022/01/13 00:31:42;;;;;;;21.73;12.73;;;;;;;0.16;100.00;100522.94;10344071;28;20173;-69
2022/01/13 00:36:46;;;;;;;17.60;13.02;;;;;;;0.09;100.00;100516.94;10366969;28;20045;-68
2022/01/13 00:41:50;;;;;;;19.90;13.32;;;;;;;0.05;100.00;100503.81;10345465;28;20053;-68
2022/01/13 00:46:58;;;;;;;21.25;12.52;;;;;;;-0.03;100.00;100510.19;10392935;23;20128;-60
2022/01/13 00:52:01;;;;;;;18.17;13.23;;;;;;;-0.09;100.00;100498.88;10459710;28;20059;-61
2022/01/13 00:57:05;;;;;;;18.42;12.98;;;;;;;-0.12;100.00;100509.59;10433350;28;20523;-58
2022/01/13 01:02:09;;;;;;;18.75;13.52;;;;;;;-0.15;100.00;100513.16;10450604;28;20048;-60
2022/01/13 01:07:12;;;;;;;20.60;13.38;;;;;;;-0.23;100.00;100515.16;10458134;28;20117;-61
2022/01/13 01:12:18;;;;;;;20.00;13.30;;;;;;;-0.26;100.00;100512.56;10451222;28;20049;-60
2022/01/13 01:17:21;;;;;;;20.30;12.90;;;;;;;-0.29;100.00;100510.03;10436575;28;20128;-60
2022/01/13 01:22:41;;;;;;;20.20;12.95;;;;;;;-0.32;100.00;100511.84;10461336;28;20060;-62
2022/01/13 01:27:49;;;;;;;21.13;13.40;;;;;;;-0.32;100.00;100513.63;10454397;28;20056;-59
2022/01/13 01:32:53;;;;;;;21.73;12.73;;;;;;;-0.32;100.00;100514.50;10455964;28;20049;-61
2022/01/13 01:37:56;;;;;;;19.88;12.80;;;;;;;-0.33;100.00;100514.53;10468194;28;20043;-60
2022/01/13 01:43:00;;;;;;;18.80;13.13;;;;;;;-0.37;100.00;100486.41;10465800;28;20040;-56
2022/01/13 01:48:04;;;;;;;18.88;11.70;;;;;;;-0.40;100.00;100489.97;10466590;28;20056;-59
2022/01/13 01:53:07;;;;;;;17.73;12.73;;;;;;;-0.44;100.00;100477.75;10444624;28;20071;-59
2022/01/13 01:58:12;;;;;;;16.05;11.45;;;;;;;-0.44;100.00;100475.09;10445382;28;20043;-57
2022/01/13 02:03:17;;;;;;;16.23;11.77;;;;;;;-0.45;100.00;100476.00;10444785;28;20098;-60
2022/01/13 02:08:19;;;;;;;19.95;12.18;;;;;;;-0.44;100.00;100464.50;10444420;28;20037;-57
2022/01/13 02:13:32;;;;;;;19.55;11.27;;;;;;;-0.46;100.00;100468.97;10444976;28;20414;-60
2022/01/13 02:18:37;;;;;;;18.63;11.43;;;;;;;-0.42;100.00;100465.34;10442133;28;20076;-59
2022/01/13 02:23:41;;;;;;;18.90;11.40;;;;;;;-0.54;100.00;100463.00;10449526;28;20057;-60
2022/01/13 02:28:45;;;;;;;19.15;11.90;;;;;;;-0.60;100.00;100453.44;10445978;28;20053;-64
2022/01/13 02:33:48;;;;;;;18.23;11.95;;;;;;;-0.67;100.00;100439.50;10446919;28;20045;-64
2022/01/13 02:38:55;;;;;;;18.80;12.25;;;;;;;-0.69;100.00;100446.59;10441398;28;20051;-63
2022/01/13 02:43:59;;;;;;;19.35;12.07;;;;;;;-0.72;100.00;100446.66;10443142;28;20041;-64
2022/01/13 02:49:06;;;;;;;18.52;11.38;;;;;;;-0.78;100.00;100453.00;10454847;28;20102;-64
2022/01/13 02:54:10;;;;;;;18.25;12.15;;;;;;;-0.81;100.00;100454.84;10448308;28;20041;-64
2022/01/13 02:59:14;;;;;;;20.88;11.77;;;;;;;-0.85;100.00;100447.88;10451832;28;20055;-64
2022/01/13 03:04:17;;;;;;;19.17;11.18;;;;;;;-0.86;100.00;100440.84;10443328;28;20098;-62
2022/01/13 03:09:22;;;;;;;16.23;10.55;;;;;;;-0.86;100.00;100433.81;10444741;28;20048;-64
2022/01/13 03:14:25;;;;;;;19.38;11.70;;;;;;;-0.87;100.00;100432.06;10442902;28;20041;-64
2022/01/13 03:19:28;;;;;;;16.13;10.40;;;;;;;-0.89;100.00;100441.81;10429323;28;20051;-64
2022/01/13 03:24:32;;;;;;;17.33;9.73;;;;;;;-0.88;100.00;100443.56;10452346;28;20066;-64
2022/01/13 03:29:35;;;;;;;20.33;10.35;;;;;;;-0.95;100.00;100432.25;10448267;28;20495;-63
2022/01/13 03:34:38;;;;;;;21.05;10.45;;;;;;;-0.97;100.00;100430.56;10443468;28;20045;-63
2022/01/13 03:39:42;;;;;;;17.08;9.77;;;;;;;-0.95;100.00;100431.41;10443041;28;20056;-63
2022/01/13 03:44:46;;;;;;;23.58;10.57;;;;;;;-0.96;100.00;100433.16;10459687;28;20045;-63
2022/01/13 03:49:50;;;;;;;19.73;10.48;;;;;;;-0.96;100.00;100430.50;10467306;28;20615;-63
2022/01/13 03:55:30;;;;;;;15.30;10.32;;;;;;;-0.98;100.00;100437.59;10433893;28;20041;-63
2022/01/13 04:01:19;;;;;;;16.17;10.18;;;;;;;-1.01;100.00;100448.28;10436386;28;20055;-64
2022/01/13 04:06:40;;;;;;;15.98;9.93;;;;;;;-1.03;100.00;100435.97;10445754;28;20583;-61
2022/01/13 04:11:43;;;;;;;16.03;10.53;;;;;;;-1.01;100.00;100429.78;10425676;28;20144;-64
2022/01/13 04:16:47;;;;;;;14.18;9.73;;;;;;;-1.03;100.00;100428.94;10446181;28;20518;-61
2022/01/13 04:21:50;;;;;;;17.35;10.38;;;;;;;-1.01;100.00;100432.41;10452174;28;20077;-63
2022/01/13 04:26:55;;;;;;;15.07;9.98;;;;;;;-0.99;100.00;100432.38;10443254;28;20049;-64
2022/01/13 04:32:00;;;;;;;13.25;9.50;;;;;;;-0.96;100.00;100441.09;10431525;28;20041;-64
2022/01/13 04:37:03;;;;;;;13.75;9.20;;;;;;;-0.94;100.00;100449.88;10454578;28;20051;-64
2022/01/13 04:42:07;;;;;;;15.05;9.57;;;;;;;-0.87;100.00;100444.41;10439793;28;20446;-64
2022/01/13 04:47:12;;;;;;;13.05;8.95;;;;;;;-0.83;100.00;100444.31;10439992;28;20057;-61
2022/01/13 04:52:19;;;;;;;13.38;9.52;;;;;;;-0.79;100.00;100445.09;10436818;28;20153;-64
2022/01/13 04:57:22;;;;;;;14.80;9.13;;;;;;;-0.76;100.00;100447.66;10428194;28;20040;-64
2022/01/13 05:02:27;;;;;;;14.07;9.27;;;;;;;-0.71;100.00;100448.41;10437315;28;20049;-64
2022/01/13 05:07:30;;;;;;;11.98;9.38;;;;;;;-0.65;100.00;100450.88;10439865;28;20143;-64
2022/01/13 05:12:38;;;;;;;12.90;8.73;;;;;;;-0.58;100.00;100448.09;10440292;28;20055;-64
2022/01/13 05:23:03;;;;;;;;;;;;;;;-0.51;100.00;100441.72;10435206;28;20140;-64
2022/01/13 05:28:06;;;;;;;11.57;7.68;;;;;;;-0.46;100.00;100442.47;10439090;28;20503;-64
2022/01/13 05:33:10;;;;;;;10.68;7.18;;;;;;;-0.41;100.00;100432.63;10437979;28;20159;-64
2022/01/13 05:38:14;;;;;;;8.77;7.20;;;;;;;-0.36;100.00;100441.31;10434921;28;20501;-64
2022/01/13 05:43:16;;;;;;;11.60;8.13;;;;;;;-0.31;100.00;100441.19;10436713;28;20053;-65
2022/01/13 05:48:21;;;;;;;9.20;7.32;;;;;;;-0.30;100.00;100439.44;10436453;28;20041;-64
2022/01/13 05:53:25;;;;;;;11.02;7.65;;;;;;;-0.26;100.00;100433.09;10427792;28;20052;-63
2022/01/13 05:58:28;;;;;;;11.38;7.20;;;;;;;-0.23;100.00;100440.97;10432639;28;20127;-63
2022/01/13 06:03:33;;;;;;;9.93;6.60;;;;;;;-0.20;100.00;100431.16;10419999;28;20059;-63
2022/01/13 06:08:36;;;;;;;8.93;6.72;;;;;;;-0.20;100.00;100432.94;10433887;28;20141;-63
2022/01/13 06:13:39;;;;;;;9.52;6.15;;;;;;;-0.16;100.00;100426.63;10451745;28;20041;-64
2022/01/13 06:18:43;;;;;;;9.35;5.70;;;;;;;-0.14;100.00;100424.81;10443455;28;20494;-63
2022/01/13 06:23:46;;;;;;;9.43;6.28;;;;;;;-0.09;100.00;100432.63;10443522;28;20084;-63
2022/01/13 06:28:49;;;;;;;9.32;6.22;;;;;;;-0.07;100.00;100415.81;10445118;28;20041;-63
2022/01/13 06:33:54;;;;;;;8.43;5.50;;;;;;;-0.02;100.00;100419.16;10445733;28;20493;-61
2022/01/13 06:38:57;;;;;;;6.80;4.95;;;;;;;0.00;100.00;100413.84;10441281;28;20552;-62
2022/01/13 06:44:00;;;;;;;7.50;4.82;;;;;;;0.04;100.00;100411.97;10443487;28;20045;-63
2022/01/13 06:49:04;;;;;;;8.13;4.57;;;;;;;0.05;100.00;100419.84;10449335;23;20513;-79
2022/01/13 06:54:09;;;;;;;8.13;4.63;;;;;;;0.08;100.00;100419.78;10435749;28;20048;-78
2022/01/13 06:59:13;;;;;;;5.95;4.30;;;;;;;0.13;100.00;100427.59;10434376;28;20447;-81
2022/01/13 07:04:20;;;;;;;9.85;4.78;;;;;;;0.18;100.00;100436.25;10439933;28;20045;-82
2022/01/13 07:09:23;;;;;;;9.95;4.70;;;;;;;0.20;100.00;100437.09;10431818;28;20072;-79
2022/01/13 07:14:26;;;;;;;9.13;4.68;;;;;;;0.23;100.00;100438.81;10417745;28;20457;-79
2022/01/13 07:19:31;;;;;;;7.18;4.45;;;;;;;0.20;100.00;100429.13;10417566;28;20037;-79
2022/01/13 07:24:35;;;;;;;7.75;5.07;;;;;;;0.20;100.00;100434.44;10427395;28;20126;-77
2022/01/13 07:29:39;;;;;;;8.68;4.65;;;;;;;0.22;100.00;100434.41;10424575;28;20129;-78
2022/01/13 07:34:44;;;;;;;9.75;4.50;;;;;;;0.24;100.00;100437.84;10423170;28;20049;-78
2022/01/13 07:39:50;;;;;;;6.13;4.00;;;;;;;0.27;100.00;100435.13;10419219;28;20045;-79
2022/01/13 07:44:53;;;;;;;6.07;4.20;;;;;;;0.28;100.00;100437.75;10417447;28;20140;-78
2022/01/13 07:49:58;;;;;;;8.00;4.20;;;;;;;0.28;100.00;100442.16;10423405;28;20492;-80
2022/01/13 07:55:00;;;;;;;6.97;4.32;;;;;;;0.29;100.00;100455.38;10428092;28;20550;-78
2022/01/13 08:00:07;;;;;;;9.07;4.85;;;;;;;0.32;100.00;100450.88;10437094;28;20759;-80
2022/01/13 08:05:15;;;;;;;7.90;4.20;;;;;;;0.33;100.00;100472.06;10436824;28;20045;-80
2022/01/13 08:10:18;;;;;;;7.68;4.45;;;;;;;0.35;100.00;100477.31;10434670;28;20120;-79
2022/01/13 08:15:21;;;;;;;6.10;4.50;;;;;;;0.35;100.00;100479.97;10438822;28;20128;-79
2022/01/13 08:20:26;;;;;;;8.55;5.30;;;;;;;0.37;100.00;100486.97;10435960;28;20057;-79
2022/01/13 08:25:30;;;;;;;7.43;4.63;;;;;;;0.38;100.00;100480.75;10430712;28;20052;-79
2022/01/13 08:30:33;;;;;;;6.72;4.40;;;;;;;0.41;100.00;100485.97;10425132;28;20103;-79
2022/01/13 08:35:43;;;;;;;7.68;4.75;;;;;;;0.45;100.00;100498.22;10430855;28;20143;-79
2022/01/13 08:40:48;;;;;;;7.55;4.53;;;;;;;0.50;100.00;100499.84;10427650;28;20045;-80
2022/01/13 08:45:51;;;;;;;6.55;4.40;;;;;;;0.56;100.00;100495.25;10462690;28;20059;-79
2022/01/13 08:50:56;;;;;;;7.15;4.65;;;;;;;0.67;100.00;100499.34;10443084;28;20406;-81
2022/01/13 08:56:00;;;;;;;9.57;5.72;;;;;;;0.80;100.00;100500.72;10437838;28;20077;-77
2022/01/13 09:01:03;;;;;;;14.88;8.38;;;;;;;0.96;100.00;100489.63;10449161;28;20121;-81
2022/01/13 09:06:07;;;;;;;7.07;4.15;;;;;;;1.11;100.00;100497.09;10433210;28;20052;-80
2022/01/13 09:11:11;;;;;;;5.80;3.70;;;;;;;1.23;100.00;100496.66;10421044;28;20080;-82
2022/01/13 09:16:16;;;;;;;7.70;3.75;;;;;;;1.38;100.00;100497.09;10426950;28;20123;-80
2022/01/13 09:21:22;;;;;;;4.43;3.15;;;;;;;1.48;100.00;100479.06;10438241;28;20072;-78
2022/01/13 09:26:25;;;;;;;6.70;3.70;;;;;;;1.60;100.00;100469.78;10433456;28;20532;-80
2022/01/13 09:31:28;;;;;;;5.10;3.40;;;;;;;1.64;100.00;100469.66;10434475;28;20061;-80
2022/01/13 09:36:34;;;;;;;6.53;3.20;;;;;;;1.67;100.00;100461.56;10437425;28;20052;-78
2022/01/13 09:41:42;;;;;;;10.85;3.30;;;;;;;1.66;100.00;100446.53;10451794;28;20488;-79
2022/01/13 09:46:47;;;;;;;6.60;3.53;;;;;;;1.69;100.00;100457.06;10414443;28;20135;-80
2022/01/13 09:51:52;;;;;;;6.43;3.47;;;;;;;1.79;100.00;100477.97;10414326;28;20044;-80
2022/01/13 09:56:55;;;;;;;7.32;4.07;;;;;;;1.91;100.00;100493.50;10433565;28;20128;-80
2022/01/13 10:01:58;;;;;;;6.32;3.50;;;;;;;2.10;100.00;100476.91;10444069;28;20053;-79
2022/01/13 10:07:03;;;;;;;5.60;3.47;;;;;;;2.30;100.00;100457.50;10438410;28;20111;-82
2022/01/13 10:12:08;;;;;;;5.40;3.20;;;;;;;2.45;100.00;100456.94;10452690;28;20056;-81
2022/01/13 10:17:17;;;;;;;5.82;3.00;;;;;;;2.64;100.00;100450.91;10447942;28;20114;-83
2022/01/13 10:22:23;;;;;;;8.00;3.20;;;;;;;2.78;100.00;100432.56;10449674;28;20477;-82
2022/01/13 10:27:30;;;;;;;4.72;3.13;;;;;;;2.97;100.00;100430.94;10446122;28;20495;-82
2022/01/13 10:32:36;;;;;;;7.15;3.10;;;;;;;3.09;100.00;100425.13;10436360;28;20087;-81
2022/01/13 10:37:43;;;;;;;6.60;3.42;;;;;;;3.18;100.00;100423.88;10441590;28;20087;-79
2022/01/13 10:43:11;;;;;;;7.50;3.20;;;;;;;3.26;100.00;100421.75;10447014;28;20060;-84
2022/01/13 10:48:18;;;;;;;5.72;3.03;;;;;;;3.40;100.00;100418.50;10439125;28;20079;-81
2022/01/13 10:53:26;;;;;;;4.95;2.70;;;;;;;3.57;100.00;100419.56;10437396;28;20049;-82
2022/01/13 10:58:32;;;;;;;5.38;3.15;;;;;;;3.75;100.00;100413.44;10436272;28;20132;-80
2022/01/13 11:03:40;;;;;;;5.10;2.78;;;;;;;3.95;100.00;100414.31;10444475;28;20081;-81
2022/01/13 11:08:46;;;;;;;5.03;2.70;;;;;;;4.14;100.00;100420.53;10437113;28;20081;-81
2022/01/13 11:14:03;;;;;;;5.57;2.85;;;;;;;4.35;100.00;100419.63;10430586;28;20045;-83
2022/01/13 11:19:06;;;;;;;6.55;2.20;;;;;;;4.65;100.00;100414.63;10430633;28;20129;-82
2022/01/13 11:24:12;;;;;;;4.30;1.90;;;;;;;4.84;100.00;100393.22;10442346;28;20057;-80
2022/01/13 11:29:16;;;;;;;4.75;2.10;;;;;;;5.07;100.00;100394.75;10446102;28;20049;-79
2022/01/13 11:34:20;;;;;;;7.75;2.30;;;;;;;5.28;100.00;100393.72;10438074;28;20405;-80
2022/01/13 11:39:37;;;;;;;5.50;1.90;;;;;;;5.37;100.00;100391.47;10443588;28;20080;-81
2022/01/13 11:44:44;;;;;;;5.73;2.27;;;;;;;5.53;100.00;100396.00;10439135;28;20049;-80
2022/01/13 11:49:58;;;;;;;6.82;2.05;;;;;;;5.53;100.00;100386.16;10441901;28;20085;-79
2022/01/13 11:55:20;;;;;;;6.85;2.15;;;;;;;5.65;100.00;100368.59;10437794;28;20549;-80
2022/01/13 12:00:44;;;;;;;6.72;2.05;;;;;;;5.80;100.00;100366.94;10450878;28;20037;-80
2022/01/13 12:05:48;;;;;;;5.68;2.05;;;;;;;5.91;100.00;100379.72;10448443;28;20803;-80
2022/01/13 12:10:53;;;;;;;4.00;1.92;;;;;;;5.95;100.00;100365.22;10437239;28;20049;-83
2022/01/13 12:15:57;;;;;;;4.75;1.92;;;;;;;6.01;100.00;100348.00;10451632;28;20049;-79
2022/01/13 12:21:20;;;;;;;6.13;2.53;;;;;;;6.09;100.00;100340.41;10447207;28;20036;-76
2022/01/13 12:26:51;;;;;;;5.13;2.13;;;;;;;6.03;100.00;100331.88;10465916;28;20061;-76
2022/01/13 12:31:57;;;;;;;8.30;2.60;;;;;;;5.97;100.00;100327.69;10448363;28;20049;-77
2022/01/13 12:37:19;;;;;;;6.22;2.50;;;;;;;5.93;100.00;100335.03;10447844;28;20051;-77
2022/01/13 12:42:27;;;;;;;7.50;2.60;;;;;;;5.88;100.00;100299.63;10439841;28;20049;-79
2022/01/13 12:47:31;;;;;;;8.82;2.95;;;;;;;5.85;100.00;100300.66;10436890;28;20055;-77
2022/01/13 12:52:34;;;;;;;5.65;2.53;;;;;;;5.85;100.00;100299.81;10452828;28;20052;-76
2022/01/13 12:57:45;;;;;;;6.38;2.30;;;;;;;5.79;100.00;100294.78;10446873;28;20128;-78
2022/01/13 13:02:54;;;;;;;5.13;2.35;;;;;;;5.78;100.00;100299.28;10441630;28;20041;-79
2022/01/13 13:07:57;;;;;;;4.03;2.08;;;;;;;5.86;100.00;100299.72;10438363;28;20049;-79
2022/01/13 13:13:02;;;;;;;4.70;2.08;;;;;;;5.88;100.00;100288.06;10435928;28;20113;-78
2022/01/13 13:18:05;;;;;;;5.75;2.33;;;;;;;5.91;100.00;100277.19;10435963;28;20061;-76
2022/01/13 13:23:10;;;;;;;4.32;2.10;;;;;;;5.95;100.00;100284.09;10439820;28;20053;-75
2022/01/13 13:28:32;;;;;;;5.55;2.33;;;;;;;5.98;100.00;100283.94;10453113;28;20458;-79
2022/01/13 13:33:47;;;;;;;4.47;1.83;;;;;;;6.08;100.00;100277.13;10452773;28;20441;-78
2022/01/13 13:39:09;;;;;;;5.30;2.22;;;;;;;6.08;100.00;100285.16;10448213;28;20071;-79
2022/01/13 13:44:14;;;;;;;;;;;;;;;6.09;100.00;100281.53;10438715;28;20091;-78
2022/01/13 13:49:25;;;;;;;4.15;1.80;;;;;;;6.15;100.00;100291.03;10441899;28;19964;-80
2022/01/13 13:54:29;;;;;;;3.28;1.65;;;;;;;6.15;100.00;100283.88;10440306;28;20076;-77
2022/01/13 13:59:37;;;;;;;4.43;1.90;;;;;;;6.23;100.00;100294.16;10437981;28;20067;-78
2022/01/13 14:04:43;;;;;;;5.80;2.20;;;;;;;6.25;100.00;100283.34;10446069;28;20053;-78
2022/01/13 14:09:46;;;;;;;5.80;2.10;;;;;;;6.23;100.00;100279.91;10453479;28;20475;-77
2022/01/13 14:14:50;;;;;;;7.38;2.30;;;;;;;6.21;100.00;100279.13;10438991;28;20046;-78
2022/01/13 14:20:07;;;;;;;7.68;2.20;;;;;;;6.14;100.00;100284.84;10436899;28;20460;-77
2022/01/13 14:25:13;;;;;;;6.25;1.90;;;;;;;6.18;100.00;100277.47;10441390;28;20056;-75
2022/01/13 14:30:31;;;;;;;6.60;2.20;;;;;;;6.10;100.00;100272.56;10449334;28;20133;-79
2022/01/13 14:35:34;;;;;;;6.82;2.92;;;;;;;6.11;100.00;100263.59;10443607;28;20074;-78
2022/01/13 14:40:45;;;;;;;7.07;2.50;;;;;;;6.05;100.00;100266.63;10439111;28;20127;-79
2022/01/13 14:46:04;;;;;;;6.43;2.87;;;;;;;6.00;100.00;100266.00;10435964;28;20417;-80
2022/01/13 14:51:12;;;;;;;7.28;2.70;;;;;;;5.93;100.00;100269.97;10435874;28;20412;-82
2022/01/13 14:56:18;;;;;;;7.28;2.42;;;;;;;5.82;100.00;100266.03;10427836;28;20041;-81
2022/01/13 15:01:24;;;;;;;9.48;2.92;;;;;;;5.75;100.00;100251.28;10417280;28;20087;-78
2022/01/13 15:06:29;;;;;;;5.40;2.20;;;;;;;5.65;100.00;100258.09;10416478;28;20041;-83
2022/01/13 15:11:33;;;;;;;4.50;2.20;;;;;;;5.53;100.00;100264.97;10417793;28;20045;-80
2022/01/13 15:16:40;;;;;;;6.75;2.58;;;;;;;5.42;100.00;100273.59;10452433;28;20045;-81
2022/01/13 15:21:44;;;;;;;5.60;2.50;;;;;;;5.31;100.00;100267.97;10421144;28;20140;-81
2022/01/13 15:26:49;;;;;;;8.63;2.40;;;;;;;5.14;100.00;100260.84;10422005;28;20556;-81
2022/01/13 15:31:54;;;;;;;5.75;2.20;;;;;;;4.81;100.00;100264.34;10417584;28;20099;-79
2022/01/13 15:36:59;;;;;;;7.13;2.28;;;;;;;4.67;100.00;100268.56;10435358;28;20044;-80
2022/01/13 15:42:03;;;;;;;4.88;1.95;;;;;;;4.65;100.00;100269.56;10424870;28;20045;-80
2022/01/13 15:47:08;;;;;;;8.45;2.20;;;;;;;4.62;100.00;100278.59;10418508;28;20505;-80
2022/01/13 15:52:13;;;;;;;5.75;2.25;;;;;;;4.60;100.00;100277.81;10426257;28;20436;-79
2022/01/13 15:57:17;;;;;;;4.53;2.20;;;;;;;4.55;100.00;100274.53;10425661;28;20040;-80
2022/01/13 16:02:24;;;;;;;5.35;2.50;;;;;;;4.50;100.00;100263.19;10431681;28;20064;-79
2022/01/13 16:07:27;;;;;;;6.80;2.80;;;;;;;4.49;100.00;100265.00;10444064;28;20061;-80
2022/01/13 16:12:33;;;;;;;5.72;2.90;;;;;;;4.46;100.00;100260.72;10439444;28;20049;-79
2022/01/13 16:17:39;;;;;;;5.30;2.75;;;;;;;4.46;100.00;100265.16;10434962;28;20061;-80
2022/01/13 16:22:43;;;;;;;5.32;3.17;;;;;;;4.41;100.00;100261.88;10404428;28;20045;-79
2022/01/13 16:27:47;;;;;;;5.97;2.92;;;;;;;4.32;100.00;100264.03;10426413;28;20041;-78
2022/01/13 16:32:54;;;;;;;5.32;2.95;;;;;;;4.30;100.00;100268.59;10425045;28;20112;-78
2022/01/13 16:38:03;;;;;;;4.70;3.33;;;;;;;4.27;100.00;100258.09;10434946;28;20069;-79
2022/01/13 16:43:15;;;;;;;7.65;3.88;;;;;;;4.26;100.00;100268.81;10426444;28;20041;-80
2022/01/13 16:48:21;;;;;;;5.60;3.38;;;;;;;4.19;100.00;100262.06;10439786;23;20395;-67
2022/01/13 16:53:24;;;;;;;6.60;3.95;;;;;;;4.14;100.00;100259.63;10386850;28;20068;-64
2022/01/13 16:58:28;;;;;;;7.35;3.95;;;;;;;4.07;100.00;100266.19;10400608;28;20513;-65
2022/01/13 17:03:32;;;;;;;6.72;4.53;;;;;;;4.03;100.00;100267.28;10383704;28;20079;-60
2022/01/13 17:08:35;;;;;;;6.20;4.40;;;;;;;3.96;100.00;100262.22;10400351;28;20046;-67
2022/01/13 17:13:39;;;;;;;6.45;4.65;;;;;;;3.93;100.00;100250.84;10386029;28;20072;-64
2022/01/13 17:18:44;;;;;;;5.93;4.07;;;;;;;3.90;100.00;100251.88;10409809;28;20041;-61
2022/01/13 17:23:48;;;;;;;6.10;4.25;;;;;;;3.87;100.00;100256.50;10401461;28;20107;-59
2022/01/13 17:28:52;;;;;;;6.13;4.20;;;;;;;3.77;100.00;100245.38;10399503;28;20483;-58
2022/01/13 17:33:57;;;;;;;5.35;4.00;;;;;;;3.73;100.00;100251.78;10406873;28;20061;-62
2022/01/13 17:39:02;;;;;;;8.05;4.10;;;;;;;3.64;100.00;100248.63;10411016;28;20111;-63
2022/01/13 17:44:05;;;;;;;7.18;4.43;;;;;;;3.58;100.00;100251.59;10416940;28;20555;-64
2022/01/13 17:49:12;;;;;;;6.80;4.38;;;;;;;3.48;100.00;100239.59;10407759;28;20046;-65
2022/01/13 17:54:16;;;;;;;7.40;4.25;;;;;;;3.47;100.00;100243.22;10403819;28;20121;-65
2022/01/13 17:59:21;;;;;;;7.10;4.00;;;;;;;3.34;100.00;100249.13;10438997;28;20060;-68
2022/01/13 18:04:28;;;;;;;4.78;3.75;;;;;;;3.25;100.00;100244.19;10478269;28;20064;-65
2022/01/13 18:09:33;;;;;;;5.20;3.15;;;;;;;3.21;100.00;100248.78;10449756;28;20049;-65
2022/01/13 18:14:38;;;;;;;6.45;3.95;;;;;;;3.17;100.00;100249.00;10414813;28;20068;-63
2022/01/13 18:19:42;;;;;;;5.20;3.80;;;;;;;3.07;100.00;100245.88;10405231;28;20041;-63
2022/01/13 18:24:46;;;;;;;6.55;4.18;;;;;;;3.07;100.00;100251.22;10409677;28;20103;-63
2022/01/13 18:29:49;;;;;;;5.78;3.80;;;;;;;3.02;100.00;100248.75;10407033;28;20034;-64
2022/01/13 18:34:53;;;;;;;4.53;3.45;;;;;;;3.00;100.00;100255.94;10404604;28;20479;-64
2022/01/13 18:39:57;;;;;;;5.38;3.92;;;;;;;3.00;100.00;100249.75;10402983;28;20045;-64
2022/01/13 18:45:02;;;;;;;7.25;5.05;;;;;;;2.95;100.00;100252.63;10403806;28;20096;-64
2022/01/13 18:50:07;;;;;;;6.63;4.55;;;;;;;2.87;100.00;100244.97;10412754;28;20060;-65
2022/01/13 18:55:11;;;;;;;7.68;5.38;;;;;;;2.81;100.00;100249.69;10407588;28;20123;-65
2022/01/13 19:00:16;;;;;;;9.90;5.60;;;;;;;2.75;100.00;100249.03;10411233;28;20038;-65
2022/01/13 19:05:22;;;;;;;9.93;6.68;;;;;;;2.59;100.00;100261.28;10405866;28;20088;-64
2022/01/13 19:10:25;;;;;;;10.40;7.53;;;;;;;2.55;100.00;100260.53;10405971;28;20465;-65
2022/01/13 19:15:29;;;;;;;9.50;6.68;;;;;;;2.47;100.00;100252.00;10402962;28;20057;-67
2022/01/13 19:20:35;;;;;;;10.25;7.38;;;;;;;2.46;100.00;100255.59;10390840;28;20041;-67
2022/01/13 19:25:40;;;;;;;8.13;6.28;;;;;;;2.46;100.00;100250.28;10407739;28;20453;-66
2022/01/13 19:30:44;;;;;;;11.50;7.18;;;;;;;2.38;100.00;100239.97;10395865;28;20119;-67
2022/01/13 19:35:48;;;;;;;8.88;6.80;;;;;;;2.30;100.00;100244.72;10395626;28;20041;-65
2022/01/13 19:40:54;;;;;;;11.63;7.65;;;;;;;2.23;100.00;100240.59;10412197;28;20034;-63
2022/01/13 19:45:57;;;;;;;10.70;8.20;;;;;;;2.18;100.00;100239.91;10412116;28;20517;-64
2022/01/13 19:51:03;;;;;;;12.43;8.95;;;;;;;2.12;100.00;100244.56;10415416;28;20053;-66
2022/01/13 19:56:07;;;;;;;11.10;8.75;;;;;;;2.10;100.00;100240.22;10383341;28;20060;-64
2022/01/13 20:01:11;;;;;;;14.02;9.98;;;;;;;2.06;100.00;100247.44;10397031;28;20060;-65
2022/01/13 20:06:18;;;;;;;14.07;9.43;;;;;;;2.03;100.00;100242.28;10402668;28;20132;-66
2022/01/13 20:11:21;;;;;;;13.55;9.30;;;;;;;1.95;100.00;100233.72;10396385;28;20045;-63
2022/01/13 20:16:24;;;;;;;15.32;9.25;;;;;;;1.92;100.00;100232.06;10396583;28;20049;-65
2022/01/13 20:21:29;;;;;;;13.40;9.73;;;;;;;1.85;100.00;100233.25;10405284;23;20478;-81
2022/01/13 20:26:33;;;;;;;12.63;9.05;;;;;;;1.81;100.00;100231.63;10406563;28;20080;-81
2022/01/13 20:31:37;;;;;;;12.88;8.75;;;;;;;1.78;100.00;100226.41;10380905;28;20056;-83
2022/01/13 20:36:42;;;;;;;13.40;8.88;;;;;;;1.77;100.00;100222.91;10384880;28;20054;-80
2022/01/13 20:41:45;;;;;;;10.55;8.15;;;;;;;1.78;100.00;100215.78;10371605;28;20053;-79
2022/01/13 20:46:50;;;;;;;12.15;8.82;;;;;;;1.77;100.00;100220.25;10349900;28;20842;-80
2022/01/13 20:51:54;;;;;;;13.25;8.45;;;;;;;1.76;100.00;100218.53;10364185;28;20757;-81
2022/01/13 20:56:57;;;;;;;9.57;6.90;;;;;;;1.78;100.00;100199.84;10344558;28;20560;-82
2022/01/13 21:02:01;;;;;;;9.77;7.40;;;;;;;1.77;100.00;100193.69;10348023;28;20525;-79
2022/01/13 21:07:08;;;;;;;9.68;7.20;;;;;;;1.77;100.00;100193.69;10360899;28;20045;-85
2022/01/13 21:12:11;;;;;;;9.18;7.28;;;;;;;1.73;100.00;100191.22;10365539;28;20046;-82
2022/01/13 21:17:14;;;;;;;8.98;6.38;;;;;;;1.77;100.00;100191.03;10361683;28;20104;-86
2022/01/13 21:22:22;;;;;;;8.20;6.25;;;;;;;1.85;100.00;100183.59;10369711;28;20577;-85
2022/01/13 21:27:25;;;;;;;8.32;6.40;;;;;;;1.93;100.00;100182.44;10382061;28;20045;-84
2022/01/13 21:32:28;;;;;;;8.25;5.85;;;;;;;1.99;100.00;100182.16;10350479;28;20149;-86
2022/01/13 21:37:34;;;;;;;8.68;6.20;;;;;;;1.96;100.00;100166.34;10362270;28;20320;-87
2022/01/13 21:42:38;;;;;;;8.38;6.50;;;;;;;1.91;100.00;100160.38;10357084;28;20049;-87
2022/01/13 21:47:43;;;;;;;10.15;6.60;;;;;;;1.92;100.00;100168.25;10355513;28;20057;-87
2022/01/13 21:52:48;;;;;;;10.00;6.93;;;;;;;1.88;100.00;100176.44;10351946;28;20038;-87
2022/01/13 21:57:51;;;;;;;10.15;6.65;;;;;;;1.80;100.00;100156.34;10364929;28;20081;-86
2022/01/13 22:02:56;;;;;;;8.60;6.40;;;;;;;1.79;100.00;100159.94;10360851;28;20049;-86
2022/01/13 22:08:03;;;;;;;8.73;6.07;;;;;;;1.75;100.00;100147.69;10348078;28;20054;-85
2022/01/13 22:13:07;;;;;;;6.88;5.60;;;;;;;1.73;100.00;100154.84;10364550;28;20080;-86
2022/01/13 22:18:10;;;;;;;8.30;5.90;;;;;;;1.68;100.00;100147.06;10351747;28;20092;-86
2022/01/13 22:23:15;;;;;;;8.13;5.53;;;;;;;1.64;100.00;100156.13;10359660;28;20128;-84
2022/01/13 22:28:19;;;;;;;7.20;5.68;;;;;;;1.63;100.00;100143.75;10375284;28;20041;-86
2022/01/13 22:33:25;;;;;;;8.80;5.63;;;;;;;1.64;100.00;100144.59;10374580;28;20077;-87
2022/01/13 22:39:10;;;;;;;5.85;4.95;;;;;;;1.63;100.00;100132.25;10390847;28;20515;-86
2022/01/13 22:44:15;;;;;;;7.10;5.40;;;;;;;1.63;100.00;100140.22;10388470;28;20145;-86
2022/01/13 22:49:27;;;;;;;6.10;5.22;;;;;;;1.54;100.00;100126.38;10391249;28;20042;-85
2022/01/13 22:54:43;;;;;;;6.60;5.35;;;;;;;1.50;100.00;100122.09;10393826;28;20048;-87
2022/01/13 23:00:01;;;;;;;7.10;5.75;;;;;;;1.47;100.00;100119.56;10370515;28;20078;-84
2022/01/13 23:05:32;;;;;;;7.72;5.50;;;;;;;1.47;100.00;100105.44;10411318;28;20052;-84
2022/01/13 23:10:45;;;;;;;7.47;5.28;;;;;;;1.40;100.00;100082.72;10398352;28;20635;-84
2022/01/13 23:27:05;;;;;;;7.00;5.05;;;;;;;1.44;100.00;100089.63;10301281;28;20053;-85
2022/01/13 23:32:25;;;;;;;6.43;4.93;;;;;;;1.41;100.00;100080.00;10366949;28;20046;-84